Time;durP1;ratioP1;P1;durP2;ratioP2;P2;SDS_P1;SDS_P2;PMS_P1;PMS_P2;Temp;Humidity;BMP_temperature;BMP_pressure;BME280_temperature;BME280_humidity;BME280_pressure;Samples;Min_cycle;Max_cycle;Signal;HPM_P1;HPM_P2
2022/06/19 00:01:08;;;;;;;11.37;5.97;;;25.60;1.00;;;;;;5050813;28;20442;-54
2022/06/19 00:03:44;;;;;;;9.23;6.27;;;25.60;1.00;;;;;;5051316;28;20443;-57
2022/06/19 00:06:10;;;;;;;12.73;6.43;;;25.60;1.00;;;;;;5051380;28;20559;-55
2022/06/19 00:08:36;;;;;;;16.60;6.20;;;25.60;1.00;;;;;;5050442;28;20454;-55
2022/06/19 00:11:06;;;;;;;13.27;6.53;;;25.70;1.00;;;;;;5051223;28;20481;-54
2022/06/19 00:13:32;;;;;;;11.47;6.30;;;25.60;1.00;;;;;;5050962;28;20542;-54
2022/06/19 00:15:58;;;;;;;12.43;6.33;;;25.60;1.00;;;;;;5051514;28;20430;-53
2022/06/19 00:18:23;;;;;;;10.97;6.43;;;25.50;1.00;;;;;;5050721;28;20649;-54
2022/06/19 00:20:51;;;;;;;12.17;6.10;;;25.50;1.00;;;;;;5065554;28;20510;-56
2022/06/19 00:23:17;;;;;;;12.73;6.03;;;;;;;;;;5071142;28;20218;-53
2022/06/19 00:25:42;;;;;;;10.93;6.30;;;25.40;1.00;;;;;;5049797;28;20488;-55
2022/06/19 00:28:08;;;;;;;11.03;6.03;;;25.40;1.00;;;;;;5050244;28;20831;-54
2022/06/19 00:30:34;;;;;;;9.97;6.20;;;25.40;1.00;;;;;;5050825;28;20199;-54
2022/06/19 00:33:00;;;;;;;13.40;6.80;;;25.30;1.00;;;;;;5051078;28;20211;-53
2022/06/19 00:35:27;;;;;;;14.53;6.30;;;25.30;1.00;;;;;;5050708;28;20889;-55
2022/06/19 00:37:55;;;;;;;12.23;5.90;;;25.10;1.00;;;;;;5050693;28;20940;-54
2022/06/19 00:40:22;;;;;;;9.13;6.00;;;25.10;1.00;;;;;;5050607;28;20434;-56
2022/06/19 00:42:47;;;;;;;11.10;5.73;;;25.10;1.00;;;;;;5061608;28;20433;-55
2022/06/19 00:45:32;;;;;;;11.27;5.57;;;25.10;1.00;;;;;;5063474;28;20434;-52
2022/06/19 00:48:00;;;;;;;9.17;6.30;;;25.10;1.00;;;;;;5070590;28;20198;-54
2022/06/19 00:50:32;;;;;;;9.57;6.07;;;25.10;1.00;;;;;;5070437;28;20564;-53
2022/06/19 00:52:59;;;;;;;9.80;6.23;;;25.00;1.00;;;;;;5061720;28;20431;-53
2022/06/19 00:55:29;;;;;;;8.83;6.17;;;25.00;1.00;;;;;;5062974;28;20440;-55
2022/06/19 00:58:02;;;;;;;12.30;6.60;;;25.00;1.00;;;;;;5051641;28;20939;-55
2022/06/19 01:00:29;;;;;;;15.00;6.33;;;24.90;1.00;;;;;;5050377;28;20433;-54
2022/06/19 01:03:06;;;;;;;11.10;6.40;;;24.90;1.00;;;;;;5065348;28;20499;-53
2022/06/19 01:05:35;;;;;;;9.40;6.40;;;24.90;1.00;;;;;;5070230;28;20434;-54
2022/06/19 01:08:02;;;;;;;10.27;5.60;;;24.90;1.00;;;;;;5050645;28;20481;-54
2022/06/19 01:10:31;;;;;;;12.57;6.20;;;24.80;1.00;;;;;;5054389;28;20441;-53
2022/06/19 01:12:57;;;;;;;12.00;6.00;;;24.70;1.00;;;;;;5049396;28;20438;-54
2022/06/19 01:15:26;;;;;;;15.77;6.77;;;24.70;1.00;;;;;;5050459;28;20478;-54
2022/06/19 01:17:59;;;;;;;13.00;6.57;;;24.70;1.00;;;;;;5059094;28;20495;-54
2022/06/19 01:20:26;;;;;;;11.50;6.27;;;24.60;1.00;;;;;;5069910;28;20827;-53
2022/06/19 01:23:15;;;;;;;11.87;6.40;;;24.60;1.00;;;;;;5056459;28;20560;-54
2022/06/19 01:25:42;;;;;;;13.13;6.17;;;24.60;1.00;;;;;;5049625;28;20483;-53
2022/06/19 01:30:59;;;;;;;11.43;6.47;;;24.50;1.00;;;;;;5049696;28;20533;-53
2022/06/19 01:33:37;;;;;;;13.00;5.60;;;24.50;1.00;;;;;;5049574;28;20442;-53
2022/06/19 01:36:07;;;;;;;12.77;6.40;;;24.50;1.00;;;;;;5049745;28;20922;-52
2022/06/19 01:38:34;;;;;;;12.93;5.50;;;24.40;1.00;;;;;;5049676;28;20809;-54
2022/06/19 01:41:10;;;;;;;11.00;5.50;;;24.40;1.00;;;;;;5049572;28;20496;-55
2022/06/19 01:43:35;;;;;;;9.70;5.60;;;24.40;1.00;;;;;;5049166;28;20461;-54
2022/06/19 01:46:07;;;;;;;14.60;5.77;;;24.40;1.00;;;;;;5049394;28;20529;-54
2022/06/19 01:48:34;;;;;;;10.93;6.33;;;24.40;1.00;;;;;;5049571;28;20242;-52
2022/06/19 01:51:05;;;;;;;8.43;6.20;;;24.30;1.00;;;;;;5049148;28;20512;-55
2022/06/19 01:53:57;;;;;;;12.87;5.67;;;24.40;1.00;;;;;;5049414;28;20457;-53
2022/06/19 01:56:24;;;;;;;10.20;5.70;;;24.30;1.00;;;;;;5049020;28;20529;-53
2022/06/19 01:58:51;;;;;;;12.60;6.40;;;24.30;1.00;;;;;;5049440;28;20442;-55
2022/06/19 02:01:17;;;;;;;11.80;5.50;;;24.30;1.00;;;;;;5049821;28;20473;-55
2022/06/19 02:03:44;;;;;;;9.90;6.30;;;24.20;1.00;;;;;;5049399;28;20466;-54
2022/06/19 02:06:12;;;;;;;10.47;6.10;;;24.30;1.00;;;;;;5049412;28;20626;-56
2022/06/19 02:08:40;;;;;;;12.60;6.27;;;24.20;1.00;;;;;;5050002;28;20764;-55
2022/06/19 02:11:08;;;;;;;13.50;7.30;;;24.10;1.00;;;;;;5045260;28;20466;-54
2022/06/19 02:13:35;;;;;;;8.93;5.53;;;24.10;1.00;;;;;;5049362;28;20442;-55
2022/06/19 02:16:08;;;;;;;13.13;6.17;;;24.10;1.00;;;;;;5049436;28;20462;-55
2022/06/19 02:18:37;;;;;;;12.27;6.20;;;24.10;1.00;;;;;;5049158;28;20450;-53
2022/06/19 02:21:07;;;;;;;7.00;5.30;;;24.00;1.00;;;;;;5054767;28;20517;-54
2022/06/19 02:23:37;;;;;;;13.10;6.13;;;24.00;1.00;;;;;;5052497;28;20441;-56
2022/06/19 02:26:10;;;;;;;10.87;6.00;;;23.90;1.00;;;;;;5069437;28;20453;-55
2022/06/19 02:28:39;;;;;;;9.30;5.80;;;23.90;1.00;;;;;;5059511;28;20445;-55
2022/06/19 02:31:07;;;;;;;13.47;6.60;;;23.90;1.00;;;;;;5049312;28;20485;-53
2022/06/19 02:33:39;;;;;;;9.30;6.20;;;23.80;1.00;;;;;;5052068;28;20438;-54
2022/06/19 02:36:33;;;;;;;14.37;6.40;;;23.80;1.00;;;;;;5053207;28;20781;-54
2022/06/19 02:39:11;;;;;;;11.73;5.80;;;23.80;1.00;;;;;;5053053;28;20517;-56
2022/06/19 02:41:45;;;;;;;9.47;5.53;;;23.80;1.00;;;;;;5052024;28;20450;-55
2022/06/19 02:44:11;;;;;;;9.60;6.70;;;23.80;1.00;;;;;;5052271;28;20792;-55
2022/06/19 02:46:36;;;;;;;15.90;6.47;;;23.70;1.00;;;;;;5052947;28;20449;-54
2022/06/19 02:49:03;;;;;;;10.83;5.97;;;23.70;1.00;;;;;;5070434;28;20433;-54
2022/06/19 02:51:29;;;;;;;9.13;5.20;;;23.90;1.00;;;;;;5072397;28;20304;-56
2022/06/19 02:53:55;;;;;;;14.00;6.00;;;23.70;1.00;;;;;;5072669;28;20437;-56
2022/06/19 02:56:21;;;;;;;9.93;5.47;;;23.80;1.00;;;;;;5066348;28;20196;-56
2022/06/19 02:58:47;;;;;;;10.87;5.60;;;23.80;1.00;;;;;;5052562;28;20479;-53
2022/06/19 03:01:15;;;;;;;15.37;6.90;;;23.80;1.00;;;;;;5052148;28;20633;-54
2022/06/19 03:03:40;;;;;;;10.10;5.17;;;23.90;1.00;;;;;;5060875;28;20228;-54
2022/06/19 03:06:07;;;;;;;10.20;5.67;;;23.80;1.00;;;;;;5056289;28;20826;-54
2022/06/19 03:08:32;;;;;;;9.13;6.00;;;23.70;1.00;;;;;;5051681;28;20294;-53
2022/06/19 03:10:58;;;;;;;11.07;5.43;;;23.60;1.00;;;;;;5052077;28;20968;-54
2022/06/19 03:13:25;;;;;;;16.40;6.10;;;23.70;1.00;;;;;;5051704;28;20180;-55
2022/06/19 03:16:07;;;;;;;11.30;5.87;;;23.80;1.00;;;;;;5049752;28;20192;-55
2022/06/19 03:18:34;;;;;;;10.47;5.40;;;23.80;1.00;;;;;;5051605;28;20485;-55
2022/06/19 03:20:59;;;;;;;10.13;5.40;;;23.90;1.00;;;;;;5051932;28;20968;-55
2022/06/19 03:23:25;;;;;;;10.80;5.30;;;23.90;1.00;;;;;;5051488;28;20478;-54
2022/06/19 03:25:51;;;;;;;9.03;5.70;;;23.90;1.00;;;;;;5054854;28;20202;-55
2022/06/19 03:28:17;;;;;;;9.90;5.23;;;23.90;1.00;;;;;;5051804;28;20192;-54
2022/06/19 03:30:42;;;;;;;7.93;5.23;;;24.00;1.00;;;;;;5051552;28;20532;-53
2022/06/19 03:33:08;;;;;;;9.00;6.03;;;24.10;1.00;;;;;;5051826;28;20287;-53
2022/06/19 03:35:34;;;;;;;10.93;4.67;;;24.10;1.00;;;;;;5051394;28;20213;-54
2022/06/19 03:37:59;;;;;;;8.80;5.50;;;24.20;1.00;;;;;;5051752;28;20634;-54
2022/06/19 03:40:25;;;;;;;11.03;5.30;;;24.30;1.00;;;;;;5051349;28;20179;-55
2022/06/19 03:42:50;;;;;;;9.70;5.87;;;24.30;1.00;;;;;;5051373;28;20660;-53
2022/06/19 03:45:16;;;;;;;8.60;5.17;;;24.40;1.00;;;;;;5053660;28;20196;-54
2022/06/19 03:47:43;;;;;;;10.73;5.50;;;24.40;1.00;;;;;;5052166;28;20577;-54
2022/06/19 03:50:14;;;;;;;6.93;4.87;;;24.50;1.00;;;;;;5051221;28;20515;-55
2022/06/19 03:52:40;;;;;;;5.83;4.87;;;24.60;1.00;;;;;;5051126;28;20617;-54
2022/06/19 03:55:07;;;;;;;7.03;4.83;;;24.60;1.00;;;;;;5051362;28;20533;-54
2022/06/19 03:57:32;;;;;;;9.03;5.27;;;24.70;1.00;;;;;;5056756;28;20184;-54
2022/06/19 03:59:58;;;;;;;9.20;5.30;;;24.70;1.00;;;;;;5051272;28;20967;-55
2022/06/19 04:02:23;;;;;;;6.13;4.50;;;24.90;1.00;;;;;;5050822;28;20188;-55
2022/06/19 04:04:49;;;;;;;11.67;5.90;;;24.90;1.00;;;;;;5050727;28;20199;-53
2022/06/19 04:07:15;;;;;;;13.73;5.47;;;24.90;1.00;;;;;;5051021;28;20241;-55
2022/06/19 04:09:41;;;;;;;10.90;5.40;;;25.00;1.00;;;;;;5050803;28;20188;-54
2022/06/19 04:12:09;;;;;;;8.77;4.90;;;25.00;1.00;;;;;;5050686;28;20474;-55
2022/06/19 04:14:35;;;;;;;7.73;4.93;;;25.10;1.00;;;;;;5056040;28;20462;-54
2022/06/19 04:17:01;;;;;;;6.80;5.10;;;25.10;1.00;;;;;;5050243;28;20439;-55
2022/06/19 04:19:27;;;;;;;9.27;5.33;;;25.20;1.00;;;;;;5051023;28;20186;-53
2022/06/19 04:21:53;;;;;;;8.83;4.80;;;25.20;1.00;;;;;;5050674;28;20978;-54
2022/06/19 04:24:22;;;;;;;9.67;5.50;;;25.30;1.00;;;;;;5052182;28;20450;-56
2022/06/19 04:26:48;;;;;;;8.37;5.10;;;25.30;1.00;;;;;;5050717;28;20188;-55
2022/06/19 04:29:14;;;;;;;7.40;5.30;;;;;;;;;;5055095;28;20492;-54
2022/06/19 04:31:40;;;;;;;9.20;5.10;;;25.40;1.00;;;;;;5050495;28;20473;-54
2022/06/19 04:34:06;;;;;;;7.90;5.00;;;25.50;1.00;;;;;;5053328;28;20457;-54
2022/06/19 04:36:32;;;;;;;7.67;5.33;;;25.60;1.00;;;;;;5054270;28;20427;-54
2022/06/19 04:38:59;;;;;;;10.23;5.10;;;25.60;1.00;;;;;;5050565;28;20188;-55
2022/06/19 04:41:29;;;;;;;9.47;4.90;;;25.60;1.00;;;;;;5053162;28;20188;-54
2022/06/19 04:43:56;;;;;;;8.80;5.03;;;25.60;1.00;;;;;;5050457;28;20801;-53
2022/06/19 04:46:22;;;;;;;9.87;6.03;;;25.70;1.00;;;;;;5050253;28;20572;-53
2022/06/19 04:48:49;;;;;;;7.67;5.47;;;25.60;1.00;;;;;;5050150;28;20438;-56
2022/06/19 04:51:15;;;;;;;6.53;5.70;;;25.70;1.00;;;;;;5049719;28;20470;-55
2022/06/19 04:53:41;;;;;;;9.93;5.90;;;25.80;1.00;;;;;;5055044;28;20434;-53
2022/06/19 04:56:08;;;;;;;8.60;4.93;;;25.80;1.00;;;;;;5049974;28;20438;-54
2022/06/19 04:58:34;;;;;;;10.87;5.10;;;25.90;1.00;;;;;;5050373;28;20978;-54
2022/06/19 05:01:06;;;;;;;8.50;5.00;;;26.10;1.00;;;;;;5051478;28;20439;-54
2022/06/19 05:03:32;;;;;;;8.07;4.47;;;26.20;1.00;;;;;;5049051;28;20449;-54
2022/06/19 05:05:57;;;;;;;8.63;5.60;;;26.20;1.00;;;;;;5054089;28;20911;-54
2022/06/19 05:08:23;;;;;;;16.27;6.30;;;26.30;1.00;;;;;;5049801;28;20203;-54
2022/06/19 05:10:49;;;;;;;8.47;5.17;;;26.30;1.00;;;;;;5050338;28;20198;-53
2022/06/19 05:13:19;;;;;;;12.50;4.90;;;26.20;1.00;;;;;;5050539;28;20653;-58
2022/06/19 05:15:47;;;;;;;8.57;5.50;;;26.20;1.00;;;;;;5049937;28;20449;-54
2022/06/19 05:18:13;;;;;;;6.97;5.77;;;;;;;;;;5049889;28;20966;-55
2022/06/19 05:20:39;;;;;;;7.23;5.80;;;;;;;;;;5053103;28;20588;-57
2022/06/19 05:23:06;;;;;;;6.37;5.50;;;26.30;1.00;;;;;;5049891;28;20429;-55
2022/06/19 05:25:32;;;;;;;7.50;5.30;;;26.40;1.00;;;;;;5049868;28;20438;-53
2022/06/19 05:27:57;;;;;;;10.40;5.10;;;26.60;1.00;;;;;;5052667;28;20553;-54
2022/06/19 05:30:23;;;;;;;7.60;5.73;;;;;;;;;;5049532;28;20191;-54
2022/06/19 05:32:49;;;;;;;9.67;6.10;;;26.60;1.00;;;;;;5049789;28;20207;-54
2022/06/19 05:35:14;;;;;;;9.70;5.70;;;26.70;1.00;;;;;;5056572;28;20443;-55
2022/06/19 05:37:40;;;;;;;6.60;6.00;;;26.70;1.00;;;;;;5049730;28;20184;-54
2022/06/19 05:40:06;;;;;;;8.43;6.27;;;26.70;1.00;;;;;;5049704;28;20222;-56
2022/06/19 05:42:32;;;;;;;11.10;7.07;;;26.80;1.00;;;;;;5049425;28;20192;-54
2022/06/19 05:44:58;;;;;;;13.23;6.47;;;26.90;1.00;;;;;;5049623;28;20445;-55
2022/06/19 05:47:23;;;;;;;7.27;6.20;;;26.90;1.00;;;;;;5049308;28;20198;-54
2022/06/19 05:49:49;;;;;;;6.57;5.97;;;27.00;1.00;;;;;;5049200;28;20322;-54
2022/06/19 05:52:22;;;;;;;7.47;6.20;;;27.10;1.00;;;;;;5049546;28;20606;-54
2022/06/19 05:54:48;;;;;;;9.33;6.10;;;27.20;1.00;;;;;;5049364;28;20230;-54
2022/06/19 05:57:14;;;;;;;7.27;5.87;;;27.10;1.00;;;;;;5049256;28;20482;-55
2022/06/19 05:59:39;;;;;;;12.40;5.90;;;27.20;1.00;;;;;;5049517;28;20493;-54
2022/06/19 06:02:07;;;;;;;8.40;5.53;;;27.30;1.00;;;;;;5049656;28;20560;-54
2022/06/19 06:04:33;;;;;;;13.13;6.07;;;27.40;1.00;;;;;;5047734;28;20191;-54
2022/06/19 06:06:59;;;;;;;7.30;5.80;;;27.40;1.00;;;;;;5049700;28;20447;-55
2022/06/19 06:09:25;;;;;;;8.13;5.50;;;27.40;1.00;;;;;;5053239;28;20565;-52
2022/06/19 06:11:50;;;;;;;9.83;5.77;;;27.50;1.00;;;;;;5053028;28;20299;-55
2022/06/19 06:14:16;;;;;;;8.07;5.10;;;27.60;1.00;;;;;;5052862;28;20709;-54
2022/06/19 06:16:41;;;;;;;6.13;5.53;;;27.70;1.00;;;;;;5053103;28;20184;-56
2022/06/19 06:19:07;;;;;;;10.63;5.10;;;27.80;1.00;;;;;;5053114;28;20274;-53
2022/06/19 06:21:33;;;;;;;6.70;5.33;;;27.90;1.00;;;;;;5053219;28;20514;-52
2022/06/19 06:23:59;;;;;;;8.60;5.60;;;28.10;1.00;;;;;;5053121;28;20203;-55
2022/06/19 06:26:29;;;;;;;7.20;5.20;;;28.30;1.00;;;;;;5052720;28;20446;-53
2022/06/19 06:28:56;;;;;;;10.80;5.70;;;28.20;1.00;;;;;;5051431;28;20642;-54
2022/06/19 06:31:22;;;;;;;26.77;6.53;;;28.20;1.00;;;;;;5052705;28;20535;-55
2022/06/19 06:33:48;;;;;;;6.67;5.73;;;28.30;1.00;;;;;;5052698;28;20956;-56
2022/06/19 06:36:14;;;;;;;6.17;5.20;;;28.30;1.00;;;;;;5052471;28;20188;-53
2022/06/19 06:38:39;;;;;;;7.73;5.00;;;28.40;1.00;;;;;;5052657;28;20168;-56
2022/06/19 06:41:10;;;;;;;5.70;5.20;;;28.50;1.00;;;;;;5052587;28;20446;-55
2022/06/19 06:43:38;;;;;;;8.77;5.10;;;28.60;1.00;;;;;;5052454;28;20192;-53
2022/06/19 06:46:15;;;;;;;7.73;5.00;;;28.70;1.00;;;;;;5052362;28;20449;-53
2022/06/19 06:48:42;;;;;;;6.47;4.50;;;28.80;1.00;;;;;;5052381;28;20457;-54
2022/06/19 06:53:33;;;;;;;6.20;5.30;;;29.10;1.00;;;;;;5052001;28;21097;-54
2022/06/19 06:55:59;;;;;;;11.20;5.27;;;29.20;1.00;;;;;;5053758;28;20199;-53
2022/06/19 06:58:24;;;;;;;5.80;4.80;;;29.30;1.00;;;;;;5052040;28;20470;-54
2022/06/19 07:00:50;;;;;;;4.97;4.40;;;;;;;;;;5052241;28;20662;-54
2022/06/19 07:03:16;;;;;;;6.97;4.97;;;29.60;1.00;;;;;;5055775;28;20187;-55
2022/06/19 07:05:42;;;;;;;5.73;4.60;;;29.60;1.00;;;;;;5052170;28;20529;-53
2022/06/19 07:08:08;;;;;;;5.13;4.70;;;;;;;;;;5052252;28;20193;-53
2022/06/19 07:10:33;;;;;;;7.20;5.03;;;30.00;1.00;;;;;;5059782;28;20648;-55
2022/06/19 07:13:00;;;;;;;5.27;4.77;;;30.20;1.00;;;;;;5050841;28;20446;-54
2022/06/19 07:15:26;;;;;;;8.33;4.83;;;30.40;1.00;;;;;;5051345;28;20219;-55
2022/06/19 07:17:52;;;;;;;8.30;4.40;;;30.50;1.00;;;;;;5051654;28;20472;-54
2022/06/19 07:20:18;;;;;;;5.77;4.80;;;30.60;1.00;;;;;;5051925;28;20449;-53
2022/06/19 07:22:43;;;;;;;5.03;4.50;;;30.80;1.00;;;;;;5051570;28;20195;-54
2022/06/19 07:25:18;;;;;;;8.33;5.30;;;30.80;1.00;;;;;;5051651;28;20478;-53
2022/06/19 07:27:44;;;;;;;7.77;4.93;;;31.00;1.00;;;;;;5051257;28;20949;-55
2022/06/19 07:30:16;;;;;;;6.90;4.50;;;31.10;1.00;;;;;;5053097;28;20604;-54
2022/06/19 07:32:41;;;;;;;5.60;4.40;;;31.30;1.00;;;;;;5053397;28;20478;-54
2022/06/19 07:35:07;;;;;;;7.33;5.40;;;31.60;1.00;;;;;;5051384;28;20763;-55
2022/06/19 07:37:33;;;;;;;8.43;4.50;;;31.90;1.00;;;;;;5051535;28;20645;-53
2022/06/19 07:39:58;;;;;;;8.43;3.73;;;32.00;1.00;;;;;;5051749;28;20486;-55
2022/06/19 07:42:24;;;;;;;8.97;4.53;;;32.00;1.00;;;;;;5051358;28;20194;-55
2022/06/19 07:44:50;;;;;;;7.90;3.70;;;32.20;1.00;;;;;;5050978;28;20184;-54
2022/06/19 07:50:15;;;;;;;5.50;3.47;;;32.80;1.00;;;;;;5051961;28;20292;-54
2022/06/19 07:52:44;;;;;;;10.40;3.90;;;32.80;1.00;;;;;;5061187;28;20466;-55
2022/06/19 07:55:11;;;;;;;8.33;3.80;;;33.10;1.00;;;;;;5048902;28;20431;-54
2022/06/19 07:57:37;;;;;;;10.87;4.93;;;33.20;1.00;;;;;;5051022;28;20443;-54
2022/06/19 08:00:16;;;;;;;13.80;4.10;;;33.20;1.00;;;;;;5050239;28;20517;-53
2022/06/19 08:02:45;;;;;;;10.33;3.87;;;33.40;1.00;;;;;;5050854;28;20580;-55
2022/06/19 08:05:11;;;;;;;13.87;5.07;;;33.50;1.00;;;;;;5051402;28;20979;-52
2022/06/19 08:07:40;;;;;;;10.57;4.23;;;33.70;1.00;;;;;;5051224;28;21023;-56
2022/06/19 08:10:09;;;;;;;12.03;5.30;;;33.70;1.00;;;;;;5050151;28;20453;-56
2022/06/19 08:12:34;;;;;;;7.53;3.60;;;33.90;1.00;;;;;;5051159;28;20471;-54
2022/06/19 08:15:00;;;;;;;14.50;3.60;;;33.80;1.00;;;;;;5060301;28;20443;-54
2022/06/19 08:17:26;;;;;;;9.90;3.37;;;33.70;1.00;;;;;;5050671;28;20173;-55
2022/06/19 08:19:51;;;;;;;9.80;3.70;;;33.80;1.00;;;;;;5051690;28;20196;-55
2022/06/19 08:22:17;;;;;;;11.50;4.30;;;33.80;1.00;;;;;;5050577;28;20230;-55
2022/06/19 08:24:43;;;;;;;8.17;3.43;;;34.10;1.00;;;;;;5050390;28;20188;-54
2022/06/19 08:27:08;;;;;;;8.07;3.77;;;34.10;1.00;;;;;;5050359;28;20200;-54
2022/06/19 08:29:34;;;;;;;10.03;3.67;;;34.20;1.00;;;;;;5050470;28;20211;-55
2022/06/19 08:32:00;;;;;;;11.10;4.17;;;34.30;1.00;;;;;;5050171;28;20286;-54
2022/06/19 08:34:28;;;;;;;6.57;3.23;;;34.50;1.00;;;;;;5050477;28;20465;-55
2022/06/19 08:36:55;;;;;;;12.40;3.77;;;34.70;1.00;;;;;;5050195;28;20533;-55
2022/06/19 08:39:21;;;;;;;10.23;3.97;;;34.60;1.00;;;;;;5048762;28;20493;-55
2022/06/19 08:42:14;;;;;;;7.57;3.77;;;34.70;1.00;;;;;;5049281;28;20480;-56
2022/06/19 08:45:04;;;;;;;7.17;3.50;;;34.70;1.00;;;;;;5050437;28;20456;-55
2022/06/19 08:48:00;;;;;;;9.40;4.07;;;34.80;1.00;;;;;;5055852;28;20442;-54
2022/06/19 08:50:37;;;;;;;9.13;4.20;;;34.60;1.00;;;;;;5048784;28;20477;-54
2022/06/19 08:53:26;;;;;;;7.77;3.80;;;34.70;1.00;;;;;;5050002;28;20496;-54
2022/06/19 08:56:32;;;;;;;11.00;5.13;;;34.70;1.00;;;;;;5048412;28;20442;-56
2022/06/19 08:59:19;;;;;;;14.50;4.50;;;34.40;1.00;;;;;;5042313;28;20439;-55
2022/06/19 09:02:08;;;;;;;12.50;3.70;;;34.40;1.00;;;;;;5049667;28;20462;-54
2022/06/19 09:07:38;;;;;;;9.60;4.20;;;34.50;1.00;;;;;;5048705;28;20946;-54
2022/06/19 09:10:19;;;;;;;6.83;3.70;;;34.80;1.00;;;;;;5049709;28;20437;-53
2022/06/19 09:13:16;;;;;;;11.80;4.10;;;34.80;1.00;;;;;;5048850;28;20883;-54
2022/06/19 09:15:48;;;;;;;9.87;4.17;;;34.70;1.00;;;;;;5049520;28;20440;-53
2022/06/19 09:18:32;;;;;;;7.80;4.00;;;34.70;1.00;;;;;;5049093;28;20912;-54
2022/06/19 09:21:11;;;;;;;18.20;3.90;;;34.70;1.00;;;;;;5049869;28;20773;-54
2022/06/19 09:23:51;;;;;;;6.80;4.10;;;34.80;1.00;;;;;;5049139;28;20485;-55
2022/06/19 09:26:38;;;;;;;11.23;4.40;;;34.90;1.00;;;;;;5049743;28;20533;-55
2022/06/19 09:29:26;;;;;;;9.70;4.90;;;35.10;1.00;;;;;;5049693;28;20523;-55
2022/06/19 09:32:19;;;;;;;9.50;4.63;;;35.10;1.00;;;;;;5048233;28;20470;-53
2022/06/19 09:34:56;;;;;;;9.83;4.73;;;35.10;1.00;;;;;;5049463;28;20442;-54
2022/06/19 09:37:35;;;;;;;7.67;4.17;;;35.10;1.00;;;;;;5054700;28;20461;-55
2022/06/19 09:40:29;;;;;;;7.20;4.87;;;35.30;1.00;;;;;;5049521;28;20447;-54
2022/06/19 09:43:09;;;;;;;11.00;4.67;;;35.10;1.00;;;;;;5049382;28;20447;-55
2022/06/19 09:45:41;;;;;;;7.77;4.27;;;34.90;1.00;;;;;;5049085;28;20441;-56
2022/06/19 09:48:21;;;;;;;9.40;4.67;;;34.90;1.00;;;;;;5049310;28;20454;-53
2022/06/19 09:51:24;;;;;;;8.70;4.43;;;35.10;1.00;;;;;;5048330;28;20497;-53
2022/06/19 09:54:02;;;;;;;8.63;4.30;;;35.20;1.00;;;;;;5049181;28;20532;-54
2022/06/19 09:56:55;;;;;;;6.40;4.47;;;35.40;1.00;;;;;;5049607;28;20449;-53
2022/06/19 09:59:37;;;;;;;10.33;4.50;;;35.60;1.00;;;;;;5049453;28;20433;-53
2022/06/19 10:02:19;;;;;;;11.73;4.07;;;35.50;1.00;;;;;;5053437;28;20456;-54
2022/06/19 10:04:58;;;;;;;8.77;4.90;;;35.70;1.00;;;;;;5057121;28;20473;-54
2022/06/19 10:07:30;;;;;;;13.77;4.80;;;35.60;1.00;;;;;;5052667;28;20464;-56
2022/06/19 10:10:01;;;;;;;8.80;4.40;;;35.60;1.00;;;;;;5049585;28;20470;-54
2022/06/19 10:12:34;;;;;;;11.37;5.03;;;35.50;1.00;;;;;;5044491;28;20473;-55
2022/06/19 10:15:05;;;;;;;15.97;4.93;;;35.50;1.00;;;;;;5052897;28;20920;-55
2022/06/19 10:17:52;;;;;;;10.07;4.70;;;35.40;1.00;;;;;;5064535;28;20800;-53
2022/06/19 10:20:21;;;;;;;14.27;4.33;;;35.60;1.00;;;;;;5049208;28;20985;-55
2022/06/19 10:23:14;;;;;;;11.90;4.33;;;35.60;1.00;;;;;;5048825;28;20442;-54
2022/06/19 10:26:15;;;;;;;9.97;4.10;;;35.60;1.00;;;;;;5049252;28;20446;-54
2022/06/19 10:28:55;;;;;;;9.73;4.77;;;35.60;1.00;;;;;;5048051;28;20541;-55
2022/06/19 10:31:45;;;;;;;8.47;3.90;;;35.70;1.00;;;;;;5048975;28;20519;-56
2022/06/19 10:34:35;;;;;;;7.93;3.87;;;35.70;1.00;;;;;;5047681;28;21005;-55
2022/06/19 10:37:18;;;;;;;8.10;4.40;;;35.50;1.00;;;;;;5052406;28;20533;-55
2022/06/19 10:39:53;;;;;;;8.67;4.03;;;35.50;1.00;;;;;;5051414;28;20439;-56
2022/06/19 10:43:05;;;;;;;7.57;4.30;;;35.70;1.00;;;;;;5052788;28;20528;-55
2022/06/19 10:45:44;;;;;;;8.53;4.30;;;35.60;1.00;;;;;;5048286;28;20971;-53
2022/06/19 10:48:37;;;;;;;6.40;3.70;;;35.60;1.00;;;;;;5047575;28;20442;-54
2022/06/19 10:51:13;;;;;;;13.90;4.60;;;35.70;1.00;;;;;;5053527;28;20577;-54
2022/06/19 10:53:56;;;;;;;9.07;3.97;;;35.90;1.00;;;;;;5050290;28;20473;-55
2022/06/19 10:56:28;;;;;;;9.67;4.03;;;36.10;1.00;;;;;;5052548;28;20449;-55
2022/06/19 10:58:54;;;;;;;12.87;4.33;;;36.00;1.00;;;;;;5052030;28;20444;-54
2022/06/19 11:04:13;;;;;;;12.67;4.03;;;;;;;;;;5052051;28;20512;-55
2022/06/19 11:06:56;;;;;;;10.27;4.20;;;36.00;1.00;;;;;;5055291;28;20442;-54
2022/06/19 11:09:30;;;;;;;8.90;4.17;;;36.30;1.00;;;;;;5052066;28;20438;-56
2022/06/19 11:12:14;;;;;;;9.43;4.50;;;36.50;1.00;;;;;;5051790;28;20987;-55
2022/06/19 11:14:58;;;;;;;12.77;4.60;;;36.60;1.00;;;;;;5052119;28;20920;-56
2022/06/19 11:17:39;;;;;;;8.50;4.20;;;36.60;1.00;;;;;;5050833;28;20435;-54
2022/06/19 11:20:16;;;;;;;7.47;4.50;;;36.60;1.00;;;;;;5051042;28;20430;-54
2022/06/19 11:22:47;;;;;;;9.80;4.00;;;36.40;1.00;;;;;;5051866;28;20442;-55
2022/06/19 11:25:18;;;;;;;8.90;4.10;;;36.50;1.00;;;;;;5051756;28;20772;-54
2022/06/19 11:28:02;;;;;;;14.33;4.33;;;36.60;1.00;;;;;;5051826;28;20450;-55
2022/06/19 11:30:46;;;;;;;9.17;3.87;;;36.50;1.00;;;;;;5050343;28;20452;-55
2022/06/19 11:33:18;;;;;;;18.40;4.17;;;36.50;1.00;;;;;;5051491;28;20484;-55
2022/06/19 11:35:53;;;;;;;13.57;4.30;;;36.60;1.00;;;;;;5051612;28;20826;-54
2022/06/19 11:38:43;;;;;;;14.20;4.50;;;36.70;1.00;;;;;;5054274;28;20854;-55
2022/06/19 11:41:35;;;;;;;10.83;4.53;;;36.90;1.00;;;;;;5060125;28;20450;-56
2022/06/19 11:44:16;;;;;;;14.30;4.50;;;37.00;1.00;;;;;;5051899;28;20640;-53
2022/06/19 11:46:48;;;;;;;15.13;4.30;;;37.00;1.00;;;;;;5064139;28;20520;-54
2022/06/19 11:49:17;;;;;;;9.63;4.30;;;37.00;1.00;;;;;;5053262;28;20452;-56
2022/06/19 11:51:45;;;;;;;11.97;4.30;;;37.00;1.00;;;;;;5051158;28;20848;-55
2022/06/19 11:54:14;;;;;;;11.40;3.97;;;37.10;1.00;;;;;;5051429;28;20796;-54
2022/06/19 11:56:41;;;;;;;10.10;4.33;;;37.10;1.00;;;;;;5052853;28;20452;-54
2022/06/19 11:59:44;;;;;;;19.83;4.53;;;37.00;1.00;;;;;;5059465;28;20413;-56
2022/06/19 12:02:30;;;;;;;16.37;4.80;;;37.30;1.00;;;;;;5050858;28;20446;-54
2022/06/19 12:04:59;;;;;;;12.00;5.03;;;37.40;1.00;;;;;;5056650;28;20474;-56
2022/06/19 12:07:29;;;;;;;8.73;3.57;;;37.40;1.00;;;;;;5051052;28;20776;-55
2022/06/19 12:10:00;;;;;;;11.47;3.93;;;37.50;1.00;;;;;;5050756;28;20449;-55
2022/06/19 12:12:27;;;;;;;14.93;4.80;;;37.50;1.00;;;;;;5050437;28;20864;-54
2022/06/19 12:14:57;;;;;;;10.43;4.27;;;37.60;1.00;;;;;;5050780;28;20442;-56
2022/06/19 12:17:45;;;;;;;18.87;4.77;;;37.40;1.00;;;;;;5049112;28;20446;-54
2022/06/19 12:20:10;;;;;;;10.07;4.10;;;37.30;1.00;;;;;;5050839;28;20806;-55
2022/06/19 12:22:48;;;;;;;17.80;4.30;;;37.30;1.00;;;;;;5050648;28;20434;-55
2022/06/19 12:25:31;;;;;;;9.27;3.73;;;37.50;1.00;;;;;;5050825;28;20184;-55
2022/06/19 12:28:25;;;;;;;13.33;4.57;;;37.50;1.00;;;;;;5050517;28;20452;-54
2022/06/19 12:31:26;;;;;;;11.33;4.33;;;37.60;1.00;;;;;;5050568;28;20477;-54
2022/06/19 12:34:03;;;;;;;13.00;4.60;;;37.60;1.00;;;;;;5048441;28;20442;-55
2022/06/19 12:36:33;;;;;;;10.27;3.70;;;37.70;1.00;;;;;;5056042;28;20492;-55
2022/06/19 12:38:59;;;;;;;10.10;4.87;;;37.80;1.00;;;;;;5052667;28;20450;-56
2022/06/19 12:41:47;;;;;;;13.00;4.17;;;37.80;1.00;;;;;;5050315;28;20446;-55
2022/06/19 12:44:50;;;;;;;8.30;3.43;;;37.80;1.00;;;;;;5050132;28;20434;-56
2022/06/19 12:47:26;;;;;;;12.33;4.10;;;37.80;1.00;;;;;;5049806;28;20819;-55
2022/06/19 12:50:31;;;;;;;16.70;5.03;;;37.90;1.00;;;;;;5051112;28;20502;-55
2022/06/19 12:53:22;;;;;;;13.40;4.27;;;38.10;1.00;;;;;;5049696;28;20954;-54
2022/06/19 12:56:13;;;;;;;11.00;3.90;;;37.90;1.00;;;;;;5048651;28;21071;-55
2022/06/19 12:59:02;;;;;;;9.57;3.70;;;38.00;1.00;;;;;;5050345;28;20959;-55
2022/06/19 13:01:44;;;;;;;9.60;4.30;;;37.80;1.00;;;;;;5049079;28;20509;-55
2022/06/19 13:04:28;;;;;;;23.83;5.40;;;37.90;1.00;;;;;;5049794;28;20447;-55
2022/06/19 13:07:06;;;;;;;12.40;4.30;;;37.90;1.00;;;;;;5055949;28;20960;-55
2022/06/19 13:10:09;;;;;;;13.77;4.70;;;38.20;1.00;;;;;;5055884;28;20449;-55
2022/06/19 13:13:05;;;;;;;11.03;4.13;;;38.20;1.00;;;;;;5067377;28;20989;-54
2022/06/19 13:15:45;;;;;;;15.60;4.20;;;38.20;1.00;;;;;;5049866;28;20975;-55
2022/06/19 13:18:42;;;;;;;11.70;4.30;;;38.50;1.00;;;;;;5058196;28;20525;-55
2022/06/19 13:21:18;;;;;;;15.27;4.53;;;38.70;1.00;;;;;;5049442;28;20503;-55
2022/06/19 13:24:01;;;;;;;14.63;4.60;;;38.60;1.00;;;;;;5049523;28;20513;-55
2022/06/19 13:29:46;;;;;;;17.07;4.90;;;38.80;1.00;;;;;;5048966;28;20433;-54
2022/06/19 13:32:32;;;;;;;9.27;4.33;;;38.90;1.00;;;;;;5048135;28;20971;-53
2022/06/19 13:35:28;;;;;;;15.63;4.20;;;38.90;1.00;;;;;;5038367;28;20448;-56
2022/06/19 13:38:06;;;;;;;10.47;4.10;;;39.00;1.00;;;;;;5049639;28;20515;-54
2022/06/19 13:40:45;;;;;;;11.33;4.17;;;38.80;1.00;;;;;;5049264;28;20910;-57